Desha, Arkansas
Current Conditions -  °F | °C
As of 6:55 PM on Monday 24 Nov 2014 (Local Time) from KBVX Reporting Station
Clear Clear  
Wind Chill: 44°   Ceiling: Unl
Heat Index: 46°   Visibility: 10mi
Dew Point: 28°   Wind: 6mph
Humidity: 50%   Direction: 270°W
Pressure: 29.98"   Gusts: NA
Location:  35.74°N, 91.68°W
Report Text: KBVX 250055Z AUTO 27005KT 10SM CLR 08/M02 A2998 RMK AO1
Loading
Personal Weather Stations






























Interactive Weather Map New forecast layout! Learn more

10-Day Weather Forecast

Advertisements
Track Severe Weather on mobile